Terminal Aerodrome Forecast
Issued by NWS

Home | Current Version | Previous Version | Text Only | Print | Product List | Glossary On
Versions: 1 2 3 4 5 6 7 8 9 10 11 12 13 14 15 16 17 18 19 20 21 22 23 24 25 26
454
FTUS41 KBUF 120310 AAA
TAFIAG
TAF AMD
KIAG 120310Z 1203/1224 27008KT P6SM SCT045
     FM121500 24010G20KT P6SM BKN045
     FM121700 24011G23KT 3SM -SN BKN025
     FM122000 25013G28KT P6SM VCSH BKN035
     FM122300 25013KT 3SM -SN OVC025=

USA.gov is the U.S. government's official web portal to all federal, state and local government web resources and services.